createdAt,value
2022-09-15T00:01:14.364Z,100584.59
2022-09-15T00:03:42.767Z,100580.28
2022-09-15T00:06:11.105Z,100589.22
2022-09-15T00:08:39.708Z,100583.16
2022-09-15T00:11:19.380Z,100582.28
2022-09-15T00:13:47.603Z,100580.72
2022-09-15T00:16:16.634Z,100583.50
2022-09-15T00:18:46.187Z,100588.78
2022-09-15T00:21:18.659Z,100574.78
2022-09-15T00:23:47.456Z,100581.84
2022-09-15T00:26:19.989Z,100594.22
2022-09-15T00:28:48.488Z,100596.88
2022-09-15T00:31:20.206Z,100589.00
2022-09-15T00:33:50.167Z,100589.00
2022-09-15T00:36:19.541Z,100581.13
2022-09-15T00:38:47.490Z,100582.88
2022-09-15T00:41:17.913Z,100582.88
2022-09-15T00:44:01.584Z,100580.16
2022-09-15T00:46:41.091Z,100577.41
2022-09-15T00:49:36.817Z,100585.28
2022-09-15T00:52:42.041Z,100580.84
2022-09-15T00:55:22.543Z,100585.16
2022-09-15T00:57:59.044Z,100578.88
2022-09-15T01:00:28.361Z,100577.91
2022-09-15T01:02:57.333Z,100578.72
2022-09-15T01:05:34.288Z,100582.13
2022-09-15T01:08:17.486Z,100574.16
2022-09-15T01:10:46.693Z,100582.06
2022-09-15T01:13:15.150Z,100577.56
2022-09-15T01:16:10.307Z,100583.72
2022-09-15T01:19:01.892Z,100573.91
2022-09-15T01:22:28.049Z,100576.66
2022-09-15T01:25:43.485Z,100574.94
2022-09-15T01:29:10.517Z,100574.00
2022-09-15T01:32:14.177Z,100575.72
2022-09-15T01:34:55.285Z,100580.94
2022-09-15T01:37:34.243Z,100579.94
2022-09-15T01:40:04.258Z,100583.44
2022-09-15T01:42:34.803Z,100595.75
2022-09-15T01:45:09.353Z,100589.59
2022-09-15T01:47:37.652Z,100595.75
2022-09-15T01:50:17.620Z,100583.44
2022-09-15T01:52:50.065Z,100589.59
2022-09-15T01:55:25.222Z,100596.53
2022-09-15T01:57:52.688Z,100589.44
2022-09-15T02:00:20.419Z,100583.22
2022-09-15T02:03:00.213Z,100582.16
2022-09-15T02:06:01.895Z,100574.00
2022-09-15T02:08:49.794Z,100579.13
2022-09-15T02:11:21.447Z,100582.56
2022-09-15T02:14:17.214Z,100574.50
2022-09-15T02:16:50.048Z,100578.84
2022-09-15T02:19:55.315Z,100573.41
2022-09-15T02:22:31.008Z,100578.63
2022-09-15T02:25:09.850Z,100572.41
2022-09-15T02:27:49.520Z,100568.84
2022-09-15T02:30:19.914Z,100573.25
2022-09-15T02:32:56.196Z,100572.31
2022-09-15T02:35:28.647Z,100573.13
2022-09-15T02:37:57.236Z,100567.81
2022-09-15T02:40:24.937Z,100576.59
2022-09-15T02:43:00.980Z,100571.25
2022-09-15T02:45:31.002Z,100571.38
2022-09-15T02:47:59.181Z,100573.13
2022-09-15T02:50:26.940Z,100575.81
2022-09-15T02:52:55.842Z,100578.53
2022-09-15T02:55:27.175Z,100594.56
2022-09-15T02:57:58.631Z,100583.28
2022-09-15T03:00:28.363Z,100582.56
2022-09-15T03:02:56.392Z,100579.22
2022-09-15T03:05:29.834Z,100588.13
2022-09-15T03:07:57.505Z,100583.00
2022-09-15T03:10:26.454Z,100579.56
2022-09-15T03:12:55.016Z,100591.94
2022-09-15T03:15:25.543Z,100585.88
2022-09-15T03:17:54.618Z,100590.28
2022-09-15T03:20:28.126Z,100593.94
2022-09-15T03:22:55.996Z,100588.72
2022-09-15T03:25:23.555Z,100595.78
2022-09-15T03:27:50.889Z,100602.03
2022-09-15T03:30:18.799Z,100611.72
2022-09-15T03:32:46.159Z,100613.53
2022-09-15T03:35:13.517Z,100617.97
2022-09-15T03:37:40.920Z,100620.59
2022-09-15T03:40:10.633Z,100625.91
2022-09-15T03:42:38.161Z,100621.47
2022-09-15T03:45:06.010Z,100620.59
2022-09-15T03:47:33.376Z,100622.31
2022-09-15T03:50:00.699Z,100617.91
2022-09-15T03:52:31.900Z,100620.44
2022-09-15T03:54:59.348Z,100626.69
2022-09-15T03:57:26.688Z,100624.88
2022-09-15T03:59:54.031Z,100615.16
2022-09-15T04:02:21.578Z,100621.34
2022-09-15T04:04:49.456Z,100616.16
2022-09-15T04:07:16.824Z,100618.88
2022-09-15T04:09:44.194Z,100603.94
2022-09-15T04:12:11.590Z,100604.88
2022-09-15T04:14:38.924Z,100606.72
2022-09-15T04:17:06.342Z,100605.03
2022-09-15T04:19:33.684Z,100603.22
2022-09-15T04:22:01.053Z,100601.53
2022-09-15T04:24:28.527Z,100608.53
2022-09-15T04:26:55.959Z,100605.03
2022-09-15T04:29:23.332Z,100609.31
2022-09-15T04:31:52.893Z,100607.50
2022-09-15T04:34:20.269Z,100605.75
2022-09-15T04:36:47.658Z,100608.31
2022-09-15T04:39:15.001Z,100603.00
2022-09-15T04:41:42.565Z,100603.78
2022-09-15T04:44:09.962Z,100606.38
2022-09-15T04:46:37.444Z,100604.59
2022-09-15T04:49:04.835Z,100608.97
2022-09-15T04:51:32.227Z,100600.06
2022-09-15T04:53:59.560Z,100609.75
2022-09-15T04:56:27.759Z,100606.16
2022-09-15T04:59:03.527Z,100611.38
2022-09-15T05:01:35.230Z,100609.59
2022-09-15T05:04:04.499Z,100610.53
2022-09-15T05:06:33.442Z,100611.31
2022-09-15T05:09:01.353Z,100608.66
2022-09-15T05:11:30.856Z,100603.31
2022-09-15T05:13:59.738Z,100601.53
2022-09-15T05:16:29.548Z,100600.56
2022-09-15T05:19:00.849Z,100602.38
2022-09-15T05:21:28.917Z,100598.81
2022-09-15T05:23:56.784Z,100600.56
2022-09-15T05:26:29.066Z,100601.47
2022-09-15T05:28:57.912Z,100608.50
2022-09-15T05:31:30.662Z,100626.13
2022-09-15T05:34:02.247Z,100622.69
2022-09-15T05:36:30.336Z,100622.75
2022-09-15T05:38:58.439Z,100621.91
2022-09-15T05:41:28.284Z,100626.41
2022-09-15T05:43:57.729Z,100641.31
2022-09-15T05:46:26.679Z,100637.81
2022-09-15T05:48:57.666Z,100639.47
2022-09-15T05:51:25.348Z,100643.06
2022-09-15T05:53:52.889Z,100638.56
2022-09-15T05:56:20.593Z,100639.34
2022-09-15T05:58:49.208Z,100640.06
2022-09-15T06:01:23.730Z,100638.22
2022-09-15T06:03:51.873Z,100641.63
2022-09-15T06:06:20.196Z,100639.84
2022-09-15T06:08:55.613Z,100648.56
2022-09-15T06:11:28.806Z,100647.50
2022-09-15T06:14:00.535Z,100656.06
2022-09-15T06:16:32.046Z,100650.63
2022-09-15T06:19:00.836Z,100648.00
2022-09-15T06:21:31.158Z,100653.13
2022-09-15T06:24:03.224Z,100647.66
2022-09-15T06:26:30.864Z,100651.09
2022-09-15T06:29:04.871Z,100656.16
2022-09-15T06:31:33.786Z,100656.94
2022-09-15T06:34:03.910Z,100664.72
2022-09-15T06:36:32.221Z,100662.88
2022-09-15T06:39:00.026Z,100656.59
2022-09-15T06:41:35.332Z,100666.88
2022-09-15T06:44:14.900Z,100666.66
2022-09-15T06:46:42.278Z,100668.94
2022-09-15T06:49:10.049Z,100674.78
2022-09-15T06:51:37.422Z,100671.06
2022-09-15T06:54:06.062Z,100682.25
2022-09-15T06:56:37.898Z,100687.34
2022-09-15T06:59:06.085Z,100692.41
2022-09-15T07:01:34.048Z,100693.97
2022-09-15T07:04:06.079Z,100697.19
2022-09-15T07:06:34.087Z,100697.03
2022-09-15T07:09:04.496Z,100699.44
2022-09-15T07:11:33.090Z,100698.38
2022-09-15T07:14:00.417Z,100700.94
2022-09-15T07:16:27.897Z,100706.94
2022-09-15T07:18:57.141Z,100704.19
2022-09-15T07:21:24.674Z,100705.84
2022-09-15T07:23:52.436Z,100708.34
2022-09-15T07:26:27.569Z,100716.22
2022-09-15T07:29:01.672Z,100719.56
2022-09-15T07:31:32.851Z,100714.97
2022-09-15T07:34:01.209Z,100713.88
2022-09-15T07:36:30.251Z,100710.91
2022-09-15T07:38:58.432Z,100712.44
2022-09-15T07:41:31.076Z,100714.69
2022-09-15T07:44:00.489Z,100714.44
2022-09-15T07:46:32.382Z,100711.53
2022-09-15T07:49:00.806Z,100713.94
2022-09-15T07:51:28.408Z,100720.81
2022-09-15T07:53:56.360Z,100722.34
2022-09-15T07:56:24.482Z,100732.75
2022-09-15T07:58:52.173Z,100730.78
2022-09-15T08:01:22.421Z,100726.09
2022-09-15T08:03:52.325Z,100735.69
2022-09-15T08:06:23.611Z,100747.91
2022-09-15T08:08:55.044Z,100744.28
2022-09-15T08:11:23.881Z,100748.69
2022-09-15T08:13:52.386Z,100750.50
2022-09-15T08:16:23.447Z,100754.78
2022-09-15T08:18:54.329Z,100752.91
2022-09-15T08:21:23.624Z,100748.28
2022-09-15T08:23:59.769Z,100753.34
2022-09-15T08:26:29.008Z,100758.50
2022-09-15T08:28:57.728Z,100759.09
2022-09-15T08:31:25.522Z,100757.91
2022-09-15T08:33:55.424Z,100758.53
2022-09-15T08:36:27.404Z,100758.28
2022-09-15T08:38:55.247Z,100767.63
2022-09-15T08:41:34.045Z,100769.94
2022-09-15T08:44:25.396Z,100764.31
2022-09-15T08:47:16.212Z,100775.38
2022-09-15T08:50:10.144Z,100776.84
2022-09-15T08:52:53.848Z,100781.91
2022-09-15T08:55:48.074Z,100786.97
2022-09-15T08:58:24.047Z,100789.94
2022-09-15T09:01:31.921Z,100786.94
2022-09-15T09:04:25.610Z,100793.56
2022-09-15T09:07:18.862Z,100796.88
2022-09-15T09:09:59.320Z,100796.53
2022-09-15T09:13:16.835Z,100797.91
2022-09-15T09:15:59.004Z,100804.09
2022-09-15T09:18:54.465Z,100812.91
2022-09-15T09:21:33.648Z,100805.03
2022-09-15T09:24:32.138Z,100805.13
2022-09-15T09:26:59.572Z,100807.84
2022-09-15T09:29:39.513Z,100809.66
2022-09-15T09:32:22.235Z,100808.81
2022-09-15T09:35:08.914Z,100803.66
2022-09-15T09:37:36.294Z,100808.47
2022-09-15T09:40:04.406Z,100798.13
2022-09-15T09:42:37.095Z,100806.31
2022-09-15T09:45:06.298Z,100808.22
2022-09-15T09:47:36.339Z,100815.59
2022-09-15T09:50:03.965Z,100815.94
2022-09-15T09:52:39.368Z,100808.22
2022-09-15T09:55:18.578Z,100814.41
2022-09-15T09:57:45.981Z,100816.78
2022-09-15T10:00:33.604Z,100806.09
2022-09-15T10:03:17.484Z,100809.66
2022-09-15T10:06:04.489Z,100808.56
2022-09-15T10:08:31.976Z,100809.09
2022-09-15T10:11:10.182Z,100818.50
2022-09-15T10:13:53.430Z,100814.72
2022-09-15T10:16:22.485Z,100817.31
2022-09-15T10:18:54.295Z,100806.31
2022-09-15T10:21:25.182Z,100817.44
2022-09-15T10:23:52.671Z,100805.63
2022-09-15T10:26:33.518Z,100807.94
2022-09-15T10:29:16.121Z,100804.91
2022-09-15T10:31:45.564Z,100792.88
2022-09-15T10:34:33.285Z,100791.94
2022-09-15T10:37:29.528Z,100798.13
2022-09-15T10:40:00.942Z,100796.25
2022-09-15T10:43:01.236Z,100801.09
2022-09-15T10:45:49.275Z,100816.88
2022-09-15T10:48:43.979Z,100824.38
2022-09-15T10:52:32.467Z,100825.69
2022-09-15T10:55:56.556Z,100828.44
2022-09-15T10:58:56.693Z,100824.06
2022-09-15T11:01:30.196Z,100821.03
2022-09-15T11:04:06.576Z,100826.59
2022-09-15T11:07:07.222Z,100816.13
2022-09-15T11:09:50.928Z,100819.81
2022-09-15T11:12:36.572Z,100821.50
2022-09-15T11:16:06.402Z,100824.00
2022-09-15T11:18:45.390Z,100824.00
2022-09-15T11:21:24.796Z,100822.91
2022-09-15T11:24:23.314Z,100826.19
2022-09-15T11:27:04.968Z,100831.34
2022-09-15T11:29:47.528Z,100824.41
2022-09-15T11:32:52.903Z,100815.56
2022-09-15T11:35:54.464Z,100827.91
2022-09-15T11:38:35.633Z,100818.13
2022-09-15T11:41:17.604Z,100823.19
2022-09-15T11:44:16.188Z,100825.69
2022-09-15T11:47:05.176Z,100834.44
2022-09-15T11:50:06.138Z,100835.13
2022-09-15T11:53:00.887Z,100837.97
2022-09-15T11:55:42.007Z,100835.22
2022-09-15T11:58:09.584Z,100824.84
2022-09-15T12:00:51.226Z,100821.66
2022-09-15T12:03:46.766Z,100819.41
2022-09-15T12:06:29.704Z,100821.00
2022-09-15T12:09:01.911Z,100816.38
2022-09-15T12:11:40.662Z,100811.47
2022-09-15T12:14:16.390Z,100817.38
2022-09-15T12:16:44.977Z,100806.66
2022-09-15T12:19:38.393Z,100813.72
2022-09-15T12:22:42.649Z,100803.25
2022-09-15T12:25:22.504Z,100799.72
2022-09-15T12:28:24.002Z,100802.28
2022-09-15T12:31:15.116Z,100784.94
2022-09-15T12:33:42.418Z,100792.16
2022-09-15T12:36:34.143Z,100782.13
2022-09-15T12:39:04.456Z,100787.63
2022-09-15T12:41:32.934Z,100786.72
2022-09-15T12:44:35.056Z,100787.41
2022-09-15T12:47:07.592Z,100789.88
2022-09-15T12:49:45.036Z,100787.09
2022-09-15T12:52:13.693Z,100786.38
2022-09-15T12:54:50.480Z,100776.13
2022-09-15T12:57:32.433Z,100784.25
2022-09-15T13:00:22.488Z,100793.53
2022-09-15T13:02:51.740Z,100786.69
2022-09-15T13:05:54.218Z,100793.44
2022-09-15T13:08:24.494Z,100782.34
2022-09-15T13:11:26.234Z,100779.00
2022-09-15T13:14:11.078Z,100782.84
2022-09-15T13:16:41.124Z,100782.63
2022-09-15T13:19:41.306Z,100776.00
2022-09-15T13:22:11.594Z,100777.50
2022-09-15T13:25:10.732Z,100782.84
2022-09-15T13:27:55.091Z,100772.69
2022-09-15T13:31:08.690Z,100773.25
2022-09-15T13:38:13.563Z,100782.00
2022-09-15T13:41:16.451Z,100783.50
2022-09-15T13:44:47.894Z,100782.19
2022-09-15T13:47:24.356Z,100782.53
2022-09-15T13:50:10.699Z,100787.97
2022-09-15T13:53:22.230Z,100788.72
2022-09-15T13:55:51.741Z,100776.44
2022-09-15T14:01:14.298Z,100779.72
2022-09-15T14:03:56.717Z,100778.88
2022-09-15T14:06:36.717Z,100775.88
2022-09-15T14:09:40.762Z,100776.84
2022-09-15T14:12:13.346Z,100773.75
2022-09-15T14:14:51.412Z,100771.75
2022-09-15T14:17:28.733Z,100779.34
2022-09-15T14:20:00.313Z,100779.22
2022-09-15T14:22:32.302Z,100789.69
2022-09-15T14:25:14.632Z,100782.84
2022-09-15T14:27:46.654Z,100793.91
2022-09-15T14:30:31.218Z,100795.28
2022-09-15T14:33:02.090Z,100813.38
2022-09-15T14:35:36.160Z,100809.13
2022-09-15T14:38:03.628Z,100805.41
2022-09-15T14:40:39.426Z,100813.19
2022-09-15T14:43:36.439Z,100803.56
2022-09-15T14:46:12.034Z,100818.38
2022-09-15T14:48:40.438Z,100817.56
2022-09-15T14:51:32.947Z,100817.81
2022-09-15T14:54:03.132Z,100816.16
2022-09-15T14:56:37.624Z,100822.19
2022-09-15T14:59:19.188Z,100811.91
2022-09-15T15:02:16.937Z,100814.53
2022-09-15T15:05:16.629Z,100813.41
2022-09-15T15:07:44.571Z,100825.59
2022-09-15T15:10:23.405Z,100826.84
2022-09-15T15:12:56.237Z,100819.59
2022-09-15T15:15:23.963Z,100829.09
2022-09-15T15:17:54.616Z,100828.63
2022-09-15T15:20:27.468Z,100815.78
2022-09-15T15:23:23.615Z,100821.19
2022-09-15T15:25:52.172Z,100829.56
2022-09-15T15:28:37.776Z,100824.34
2022-09-15T15:31:18.306Z,100825.56
2022-09-15T15:33:56.782Z,100822.22
2022-09-15T15:36:27.253Z,100834.78
2022-09-15T15:38:59.240Z,100831.44
2022-09-15T15:41:31.231Z,100833.53
2022-09-15T15:44:26.500Z,100823.16
2022-09-15T15:47:22.750Z,100835.78
2022-09-15T15:50:12.176Z,100832.38
2022-09-15T15:52:41.243Z,100837.78
2022-09-15T15:55:14.835Z,100835.88
2022-09-15T15:57:43.369Z,100838.81
2022-09-15T16:00:23.119Z,100837.09
2022-09-15T16:02:52.013Z,100839.75
2022-09-15T16:05:22.112Z,100840.72
2022-09-15T16:07:52.353Z,100843.66
2022-09-15T16:10:27.941Z,100838.69
2022-09-15T16:12:56.206Z,100845.22
2022-09-15T16:15:23.632Z,100829.50
2022-09-15T16:17:51.005Z,100843.06
2022-09-15T16:20:19.752Z,100838.84
2022-09-15T16:22:47.234Z,100843.69
2022-09-15T16:25:38.785Z,100834.16
2022-09-15T16:28:06.573Z,100843.44
2022-09-15T16:30:34.336Z,100842.75
2022-09-15T16:33:01.977Z,100839.50
2022-09-15T16:35:45.632Z,100842.25
2022-09-15T16:38:12.984Z,100854.88
2022-09-15T16:40:40.315Z,100858.63
2022-09-15T16:43:15.104Z,100851.78
2022-09-15T16:45:43.972Z,100862.56
2022-09-15T16:48:12.672Z,100857.44
2022-09-15T16:50:50.137Z,100862.06
2022-09-15T16:53:31.031Z,100868.50
2022-09-15T16:55:58.660Z,100859.03
2022-09-15T16:58:26.395Z,100857.50
2022-09-15T17:00:53.846Z,100858.59
2022-09-15T17:03:24.256Z,100862.47
2022-09-15T17:05:55.146Z,100864.44
2022-09-15T17:08:28.642Z,100860.22
2022-09-15T17:11:02.320Z,100860.38
2022-09-15T17:13:33.749Z,100855.25
2022-09-15T17:16:02.014Z,100861.66
2022-09-15T17:18:29.828Z,100860.94
2022-09-15T17:20:57.542Z,100861.13
2022-09-15T17:23:35.329Z,100861.19
2022-09-15T17:26:10.473Z,100863.16
2022-09-15T17:28:38.221Z,100863.47
2022-09-15T17:31:14.776Z,100861.91
2022-09-15T17:33:43.316Z,100871.06
2022-09-15T17:36:11.218Z,100865.28
2022-09-15T17:38:41.254Z,100868.38
2022-09-15T17:41:20.723Z,100867.78
2022-09-15T17:43:49.410Z,100874.44
2022-09-15T17:46:18.877Z,100869.38
2022-09-15T17:48:46.489Z,100869.75
2022-09-15T17:51:17.359Z,100874.53
2022-09-15T17:53:47.707Z,100882.84
2022-09-15T17:56:15.303Z,100880.56
2022-09-15T17:58:43.720Z,100885.50
2022-09-15T18:01:15.535Z,100889.38
2022-09-15T18:03:44.961Z,100886.91
2022-09-15T18:06:12.896Z,100896.97
2022-09-15T18:08:40.744Z,100896.38
2022-09-15T18:11:08.313Z,100896.66
2022-09-15T18:13:37.769Z,100898.81
2022-09-15T18:16:11.223Z,100903.63
2022-09-15T18:18:40.349Z,100902.22
2022-09-15T18:21:15.913Z,100905.13
2022-09-15T18:23:44.979Z,100904.56
2022-09-15T18:26:12.335Z,100903.00
2022-09-15T18:28:39.662Z,100903.13
2022-09-15T18:31:07.313Z,100902.47
2022-09-15T18:33:34.703Z,100904.47
2022-09-15T18:36:02.382Z,100914.31
2022-09-15T18:38:29.769Z,100914.47
2022-09-15T18:40:57.609Z,100909.41
2022-09-15T18:43:27.763Z,100908.72
2022-09-15T18:46:00.962Z,100917.66
2022-09-15T18:48:29.168Z,100926.72
2022-09-15T18:50:56.722Z,100930.50
2022-09-15T18:53:24.977Z,100926.34
2022-09-15T18:55:52.382Z,100931.00
2022-09-15T18:58:19.802Z,100929.41
2022-09-15T19:00:47.194Z,100935.84
2022-09-15T19:03:14.546Z,100938.66
2022-09-15T19:05:42.139Z,100934.50
2022-09-15T19:08:11.248Z,100931.19
2022-09-15T19:10:41.428Z,100935.72
2022-09-15T19:13:11.197Z,100939.38
2022-09-15T19:15:43.705Z,100936.88
2022-09-15T19:18:11.513Z,100936.94
2022-09-15T19:20:40.115Z,100939.63
2022-09-15T19:23:09.036Z,100952.06
2022-09-15T19:25:37.330Z,100948.50
2022-09-15T19:28:04.942Z,100948.41
2022-09-15T19:30:32.379Z,100954.59
2022-09-15T19:32:59.960Z,100958.19
2022-09-15T19:35:27.420Z,100958.28
2022-09-15T19:37:54.933Z,100956.53
2022-09-15T19:40:23.750Z,100964.53
2022-09-15T19:42:51.217Z,100961.09
2022-09-15T19:45:18.676Z,100959.38
2022-09-15T19:47:46.087Z,100966.47
2022-09-15T19:50:13.465Z,100967.31
2022-09-15T19:52:40.850Z,100965.53
2022-09-15T19:55:10.154Z,100959.34
2022-09-15T19:57:40.364Z,100962.81
2022-09-15T20:00:11.277Z,100958.38
2022-09-15T20:02:39.386Z,100954.91
2022-09-15T20:05:07.877Z,100956.53
2022-09-15T20:07:36.865Z,100956.50
2022-09-15T20:10:05.304Z,100953.00
2022-09-15T20:12:32.885Z,100954.75
2022-09-15T20:15:00.280Z,100961.84
2022-09-15T20:17:27.845Z,100957.47
2022-09-15T20:19:55.248Z,100949.66
2022-09-15T20:22:23.575Z,100968.22
2022-09-15T20:24:51.604Z,100966.63
2022-09-15T20:27:18.944Z,100966.75
2022-09-15T20:29:46.272Z,100965.91
2022-09-15T20:32:13.661Z,100966.88
2022-09-15T20:34:41.003Z,100968.72
2022-09-15T20:37:08.536Z,100975.00
2022-09-15T20:39:35.877Z,100979.53
2022-09-15T20:42:03.398Z,100977.94
2022-09-15T20:44:30.732Z,100984.25
2022-09-15T20:46:58.115Z,100985.25
2022-09-15T20:49:25.463Z,100987.09
2022-09-15T20:51:52.929Z,100985.53
2022-09-15T20:54:20.468Z,100989.16
2022-09-15T20:56:47.863Z,100985.78
2022-09-15T20:59:15.389Z,100993.69
2022-09-15T21:01:43.533Z,100995.50
2022-09-15T21:04:11.428Z,100995.53
2022-09-15T21:06:39.117Z,100994.75
2022-09-15T21:09:07.853Z,100991.25
2022-09-15T21:11:35.516Z,100985.09
2022-09-15T21:14:04.000Z,100985.97
2022-09-15T21:16:33.640Z,100993.03
2022-09-15T21:19:01.478Z,100992.19
2022-09-15T21:21:32.872Z,100987.84
2022-09-15T21:24:04.259Z,100994.97
2022-09-15T21:26:59.096Z,100995.06
2022-09-15T21:29:28.490Z,101000.44
2022-09-15T21:31:56.004Z,101001.28
2022-09-15T21:34:23.931Z,100996.94
2022-09-15T21:36:53.477Z,101001.38
2022-09-15T21:39:21.329Z,101001.38
2022-09-15T21:41:49.710Z,101001.38
2022-09-15T21:44:17.066Z,100992.56
2022-09-15T21:46:46.827Z,100990.84
2022-09-15T21:49:14.620Z,100997.03
2022-09-15T21:51:42.001Z,100992.75
2022-09-15T21:54:10.186Z,100997.16
2022-09-15T21:56:37.561Z,100999.81
2022-09-15T21:59:05.824Z,100998.03
2022-09-15T22:01:33.377Z,101000.66
2022-09-15T22:04:04.604Z,101013.88
2022-09-15T22:06:40.141Z,100999.75
2022-09-15T22:09:14.377Z,100998.03
2022-09-15T22:11:42.167Z,100997.13
2022-09-15T22:14:10.547Z,100998.03
2022-09-15T22:16:40.645Z,100986.59
2022-09-15T22:19:11.527Z,100982.22
2022-09-15T22:21:41.659Z,100983.16
2022-09-15T22:24:13.393Z,100986.66
2022-09-15T22:26:42.737Z,100984.84
2022-09-15T22:29:10.544Z,100986.59
2022-09-15T22:31:38.782Z,100978.69
2022-09-15T22:34:11.003Z,100984.75
2022-09-15T22:36:38.426Z,100986.56
2022-09-15T22:39:06.340Z,100979.56
2022-09-15T22:41:38.106Z,100986.69
2022-09-15T22:44:06.978Z,100985.22
2022-09-15T22:46:34.583Z,100991.44
2022-09-15T22:49:02.313Z,100989.66
2022-09-15T22:51:29.766Z,100990.56
2022-09-15T22:53:58.435Z,100980.88
2022-09-15T22:56:26.629Z,100990.56
2022-09-15T22:58:56.270Z,100989.72
2022-09-15T23:01:28.032Z,100991.50
2022-09-15T23:04:00.199Z,100988.00
2022-09-15T23:06:33.599Z,100986.22
2022-09-15T23:09:09.443Z,100982.72
2022-09-15T23:11:42.155Z,100978.34
2022-09-15T23:14:15.878Z,100980.97
2022-09-15T23:16:44.307Z,100981.03
2022-09-15T23:19:13.319Z,100979.31
2022-09-15T23:21:40.718Z,100982.94
2022-09-15T23:24:08.676Z,100978.53
2022-09-15T23:26:36.553Z,100976.78
2022-09-15T23:29:03.976Z,100977.59
2022-09-15T23:31:31.416Z,100978.53
2022-09-15T23:33:58.826Z,100978.53
2022-09-15T23:36:26.190Z,100980.34
2022-09-15T23:38:53.667Z,100979.56
2022-09-15T23:41:21.218Z,100968.97
2022-09-15T23:43:48.602Z,100961.09
2022-09-15T23:46:16.569Z,100959.31
2022-09-15T23:48:44.004Z,100960.31
2022-09-15T23:51:11.405Z,100963.88
2022-09-15T23:53:38.923Z,100962.28
2022-09-15T23:56:06.821Z,100961.50
2022-09-15T23:58:34.196Z,100968.63
